createdAt,value
2022-10-11T00:02:26.315Z,7.70
2022-10-11T00:05:16.936Z,7.60
2022-10-11T00:08:07.333Z,8.00
2022-10-11T00:11:01.348Z,7.30
2022-10-11T00:13:51.233Z,7.20
2022-10-11T00:16:43.782Z,7.40
2022-10-11T00:19:33.983Z,7.50
2022-10-11T00:22:24.121Z,7.30
2022-10-11T00:25:14.487Z,7.30
2022-10-11T00:28:04.656Z,7.60
2022-10-11T00:30:54.599Z,7.70
2022-10-11T00:33:44.863Z,7.50
2022-10-11T00:36:34.886Z,7.40
2022-10-11T00:39:24.777Z,6.70
2022-10-11T00:42:14.865Z,6.70
2022-10-11T00:45:53.891Z,7.20
2022-10-11T00:48:45.064Z,7.20
2022-10-11T00:51:49.032Z,6.90
2022-10-11T00:54:40.683Z,6.60
2022-10-11T00:57:33.421Z,7.10
2022-10-11T01:00:23.572Z,7.00
2022-10-11T01:03:13.511Z,6.90
2022-10-11T01:06:05.464Z,6.80
2022-10-11T01:08:55.728Z,6.10
2022-10-11T01:11:45.872Z,7.20
2022-10-11T01:15:01.376Z,6.60
2022-10-11T01:17:53.768Z,6.60
2022-10-11T01:20:50.671Z,6.80
2022-10-11T01:24:24.233Z,7.00
2022-10-11T01:27:49.457Z,6.40
2022-10-11T01:30:39.356Z,6.60
2022-10-11T01:33:32.479Z,6.50
2022-10-11T01:36:30.264Z,6.10
2022-10-11T01:39:22.711Z,6.40
2022-10-11T01:42:13.091Z,6.10
2022-10-11T01:45:03.181Z,6.20
2022-10-11T01:48:05.154Z,6.40
2022-10-11T01:50:55.633Z,7.20
2022-10-11T01:54:09.600Z,6.10
2022-10-11T01:57:25.750Z,6.30
2022-10-11T02:00:17.306Z,7.30
2022-10-11T02:03:17.600Z,7.00
2022-10-11T02:06:11.386Z,6.90
2022-10-11T02:09:08.262Z,7.10
2022-10-11T02:12:02.317Z,6.90
2022-10-11T02:14:52.179Z,7.40
2022-10-11T02:17:44.781Z,6.90
2022-10-11T02:20:34.627Z,8.10
2022-10-11T02:23:31.284Z,8.30
2022-10-11T02:26:22.096Z,8.30
2022-10-11T02:29:13.301Z,8.50
2022-10-11T02:32:03.265Z,9.10
2022-10-11T02:34:54.413Z,9.40
2022-10-11T02:37:50.201Z,9.20
2022-10-11T02:40:41.653Z,9.20
2022-10-11T02:43:36.347Z,9.50
2022-10-11T02:46:26.629Z,9.70
2022-10-11T02:49:17.066Z,10.00
2022-10-11T02:52:07.601Z,10.80
2022-10-11T02:54:57.789Z,10.30
2022-10-11T02:57:47.708Z,10.90
2022-10-11T03:00:38.975Z,11.10
2022-10-11T03:03:28.854Z,10.30
2022-10-11T03:06:19.292Z,10.60
2022-10-11T03:09:09.186Z,10.70
2022-10-11T03:11:59.040Z,11.00
2022-10-11T03:14:49.130Z,11.40
2022-10-11T03:17:39.067Z,10.90
2022-10-11T03:20:29.024Z,11.50
2022-10-11T03:23:18.920Z,12.40
2022-10-11T03:26:09.269Z,12.00
2022-10-11T03:28:59.418Z,12.20
2022-10-11T03:31:49.312Z,12.40
2022-10-11T03:34:39.543Z,12.40
2022-10-11T03:37:29.810Z,12.70
2022-10-11T03:40:20.300Z,12.60
2022-10-11T03:43:13.211Z,12.80
2022-10-11T03:46:03.765Z,12.90
2022-10-11T03:48:54.267Z,13.30
2022-10-11T03:51:44.107Z,13.00
2022-10-11T03:54:34.012Z,13.80
2022-10-11T03:57:23.879Z,13.60
2022-10-11T04:00:14.828Z,13.30
2022-10-11T04:03:04.921Z,13.80
2022-10-11T04:05:55.386Z,13.70
2022-10-11T04:08:45.732Z,14.30
2022-10-11T04:11:35.601Z,13.00
2022-10-11T04:14:25.977Z,14.00
2022-10-11T04:17:16.056Z,14.40
2022-10-11T04:20:09.995Z,13.70
2022-10-11T04:22:59.906Z,13.80
2022-10-11T04:25:49.764Z,14.20
2022-10-11T04:28:39.714Z,13.40
2022-10-11T04:31:29.621Z,14.30
2022-10-11T04:34:19.671Z,14.20
2022-10-11T04:37:09.587Z,14.90
2022-10-11T04:39:59.927Z,14.90
2022-10-11T04:42:52.700Z,14.40
2022-10-11T04:45:45.098Z,14.70
2022-10-11T04:48:35.442Z,14.60
2022-10-11T04:51:25.493Z,14.50
2022-10-11T04:54:17.313Z,14.20
2022-10-11T04:57:07.451Z,15.40
2022-10-11T04:59:57.376Z,15.00
2022-10-11T05:02:47.508Z,15.20
2022-10-11T05:05:37.393Z,14.50
2022-10-11T05:08:27.495Z,14.90
2022-10-11T05:11:17.870Z,14.50
2022-10-11T05:14:07.938Z,14.00
2022-10-11T05:17:04.477Z,13.80
2022-10-11T05:19:54.611Z,15.00
2022-10-11T05:22:44.542Z,14.70
2022-10-11T05:25:34.546Z,15.30
2022-10-11T05:28:24.635Z,15.60
2022-10-11T05:31:15.013Z,14.20
2022-10-11T05:34:04.988Z,14.40
2022-10-11T05:36:57.763Z,14.50
2022-10-11T05:39:48.004Z,14.20
2022-10-11T05:42:38.009Z,13.90
2022-10-11T05:45:28.389Z,14.20
2022-10-11T05:48:18.321Z,14.60
2022-10-11T05:51:10.018Z,14.40
2022-10-11T05:54:00.108Z,14.30
2022-10-11T05:56:50.000Z,13.70
2022-10-11T05:59:39.905Z,14.00
2022-10-11T06:02:29.925Z,13.70
2022-10-11T06:05:19.923Z,13.80
2022-10-11T06:08:10.526Z,13.50
2022-10-11T06:11:12.149Z,13.40
2022-10-11T06:14:02.418Z,13.80
2022-10-11T06:16:52.603Z,12.80
2022-10-11T06:19:42.501Z,11.00
2022-10-11T06:22:32.541Z,10.10
2022-10-11T06:25:22.492Z,9.70
2022-10-11T06:28:12.602Z,9.60
2022-10-11T06:31:03.537Z,9.70
2022-10-11T06:33:53.565Z,9.80
2022-10-11T06:36:43.567Z,9.00
2022-10-11T06:39:34.395Z,8.60
2022-10-11T06:42:27.754Z,9.20
2022-10-11T06:45:17.717Z,8.20
2022-10-11T06:48:08.645Z,8.80
2022-10-11T06:51:00.826Z,7.90
2022-10-11T06:53:54.841Z,8.20
2022-10-11T06:56:45.896Z,8.30
2022-10-11T06:59:35.854Z,7.60
2022-10-11T07:02:26.193Z,7.40
2022-10-11T07:05:16.567Z,7.50
2022-10-11T07:08:07.157Z,7.80
2022-10-11T07:11:01.737Z,7.50
2022-10-11T07:13:52.585Z,7.50
2022-10-11T07:16:42.730Z,7.80
2022-10-11T07:19:33.307Z,7.90
2022-10-11T07:22:23.426Z,7.40
2022-10-11T07:25:13.983Z,7.20
2022-10-11T07:28:04.519Z,7.30
2022-10-11T07:30:55.465Z,7.40
2022-10-11T07:33:45.622Z,7.60
2022-10-11T07:36:36.417Z,7.10
2022-10-11T07:39:27.980Z,7.10
2022-10-11T07:42:19.439Z,6.80
2022-10-11T07:45:11.067Z,7.10
2022-10-11T07:48:01.018Z,7.20
2022-10-11T07:50:51.251Z,6.50
2022-10-11T07:53:43.031Z,7.50
2022-10-11T07:56:33.152Z,7.10
2022-10-11T07:59:23.358Z,7.00
2022-10-11T08:02:13.789Z,6.30
2022-10-11T08:05:04.448Z,6.40
2022-10-11T08:07:54.368Z,6.30
2022-10-11T08:10:44.292Z,6.40
2022-10-11T08:13:35.226Z,6.50
2022-10-11T08:16:25.198Z,6.40
2022-10-11T08:19:15.309Z,6.20
2022-10-11T08:22:05.866Z,6.50
2022-10-11T08:24:55.888Z,6.00
2022-10-11T08:27:46.033Z,6.00
2022-10-11T08:30:36.067Z,5.90
2022-10-11T08:33:26.813Z,5.80
2022-10-11T08:36:16.816Z,6.00
2022-10-11T08:39:08.354Z,6.00
2022-10-11T08:42:01.695Z,5.30
2022-10-11T08:45:11.729Z,5.60
2022-10-11T08:48:13.262Z,5.00
2022-10-11T08:51:04.303Z,5.20
2022-10-11T08:53:57.009Z,5.10
2022-10-11T08:56:47.433Z,5.00
2022-10-11T08:59:44.425Z,5.60
2022-10-11T09:03:06.780Z,5.20
2022-10-11T09:06:03.483Z,5.40
2022-10-11T09:09:20.901Z,5.30
2022-10-11T09:12:17.278Z,5.50
2022-10-11T09:15:23.289Z,4.90
2022-10-11T09:18:34.712Z,5.10
2022-10-11T09:21:32.570Z,5.20
2022-10-11T09:24:33.178Z,5.10
2022-10-11T09:27:50.415Z,4.70
2022-10-11T09:30:40.664Z,5.00
2022-10-11T09:33:38.925Z,4.90
2022-10-11T09:36:34.128Z,4.70
2022-10-11T09:39:31.546Z,4.80
2022-10-11T09:42:21.885Z,4.60
2022-10-11T09:45:18.149Z,5.00
2022-10-11T09:51:01.724Z,4.30
2022-10-11T09:53:57.317Z,4.80
2022-10-11T09:56:47.397Z,4.10
2022-10-11T09:59:37.408Z,4.50
2022-10-11T10:02:27.594Z,4.20
2022-10-11T10:05:21.007Z,4.40
2022-10-11T10:08:24.694Z,4.40
2022-10-11T10:11:14.796Z,4.50
2022-10-11T10:14:04.681Z,4.20
2022-10-11T10:17:05.727Z,4.40
2022-10-11T10:19:56.435Z,4.10
2022-10-11T10:22:46.586Z,4.30
2022-10-11T10:25:43.387Z,3.50
2022-10-11T10:28:33.955Z,4.00
2022-10-11T10:31:25.908Z,3.90
2022-10-11T10:34:18.136Z,4.50
2022-10-11T10:37:14.763Z,4.20
2022-10-11T10:40:08.388Z,3.80
2022-10-11T10:42:58.427Z,4.10
2022-10-11T10:46:29.883Z,3.90
2022-10-11T10:49:54.935Z,3.50
2022-10-11T10:52:48.010Z,3.10
2022-10-11T10:55:41.709Z,3.10
2022-10-11T10:58:51.302Z,2.80
2022-10-11T11:01:49.316Z,2.70
2022-10-11T11:04:40.038Z,2.80
2022-10-11T11:07:35.344Z,2.60
2022-10-11T11:10:29.822Z,3.00
2022-10-11T11:13:25.369Z,2.80
2022-10-11T11:16:18.447Z,2.60
2022-10-11T11:19:27.541Z,2.80
2022-10-11T11:22:25.577Z,2.70
2022-10-11T11:25:30.266Z,2.60
2022-10-11T11:28:47.825Z,2.80
2022-10-11T11:31:49.565Z,2.90
2022-10-11T11:34:41.636Z,2.60
2022-10-11T11:37:34.745Z,2.90
2022-10-11T11:40:29.658Z,2.80
2022-10-11T11:43:23.121Z,3.40
2022-10-11T11:46:17.534Z,2.80
2022-10-11T11:49:13.369Z,2.60
2022-10-11T11:52:03.653Z,2.40
2022-10-11T11:55:03.765Z,2.80
2022-10-11T11:58:03.265Z,2.50
2022-10-11T12:01:01.054Z,2.70
2022-10-11T12:03:54.598Z,3.20
2022-10-11T12:07:11.212Z,2.50
2022-10-11T12:10:13.892Z,2.90
2022-10-11T12:13:09.676Z,3.00
2022-10-11T12:16:11.974Z,2.60
2022-10-11T12:19:04.261Z,2.50
2022-10-11T12:22:15.722Z,2.40
2022-10-11T12:25:43.367Z,2.50
2022-10-11T12:29:25.954Z,2.70
2022-10-11T12:32:51.493Z,2.60
2022-10-11T12:36:04.127Z,2.50
2022-10-11T12:39:50.986Z,2.60
2022-10-11T12:42:42.905Z,2.50
2022-10-11T12:45:47.589Z,2.90
2022-10-11T12:48:47.734Z,2.60
2022-10-11T12:51:40.322Z,2.60
2022-10-11T12:55:23.982Z,2.20
2022-10-11T12:58:52.700Z,2.20
2022-10-11T13:02:38.193Z,2.50
2022-10-11T13:06:15.909Z,2.30
2022-10-11T13:16:57.744Z,2.10
2022-10-11T13:29:58.515Z,2.40
2022-10-11T13:33:36.060Z,2.30
2022-10-11T13:36:31.456Z,4.50
2022-10-11T13:45:40.674Z,2.40
2022-10-11T13:49:51.300Z,2.50
2022-10-11T13:53:35.390Z,4.00
2022-10-11T13:57:20.129Z,4.00
2022-10-11T16:24:22.362Z,3.90
2022-10-11T16:27:34.384Z,4.10
2022-10-11T16:47:05.383Z,6.20
2022-10-11T16:50:13.072Z,4.40
2022-10-11T16:53:49.349Z,8.40
2022-10-11T16:56:40.239Z,9.00
2022-10-11T16:59:30.539Z,9.50
2022-10-11T17:02:22.496Z,9.60
2022-10-11T17:05:12.501Z,15.00
2022-10-11T17:08:02.713Z,20.30
2022-10-11T17:10:57.790Z,26.30
2022-10-11T17:13:48.998Z,27.00
2022-10-11T17:16:39.053Z,30.30
2022-10-11T17:19:29.255Z,34.00
2022-10-11T17:22:20.230Z,33.90
2022-10-11T17:25:10.940Z,34.40
2022-10-11T17:28:01.432Z,32.20
2022-10-11T17:30:58.310Z,33.10
2022-10-11T17:33:48.263Z,33.90
2022-10-11T17:36:38.445Z,33.80
2022-10-11T17:39:28.629Z,35.10
2022-10-11T17:42:18.642Z,37.70
2022-10-11T17:45:10.746Z,39.40
2022-10-11T17:48:03.582Z,39.80
2022-10-11T17:50:53.903Z,35.90
2022-10-11T17:53:44.652Z,30.00
2022-10-11T17:56:38.049Z,29.00
2022-10-11T17:59:30.088Z,25.20
2022-10-11T18:02:20.248Z,25.30
2022-10-11T18:05:13.794Z,26.90
2022-10-11T18:08:03.884Z,28.60
2022-10-11T18:10:53.885Z,25.70
2022-10-11T18:13:45.854Z,24.90
2022-10-11T18:16:36.247Z,22.90
2022-10-11T18:19:27.044Z,23.10
2022-10-11T18:22:17.552Z,22.80
2022-10-11T18:25:09.260Z,21.40
2022-10-11T18:27:59.421Z,23.00
2022-10-11T18:30:49.641Z,22.30
2022-10-11T18:33:39.797Z,23.10
2022-10-11T18:36:32.990Z,22.80
2022-10-11T18:39:23.065Z,22.40
2022-10-11T18:42:13.099Z,22.40
2022-10-11T18:45:05.648Z,22.90
2022-10-11T18:47:56.931Z,21.90
2022-10-11T18:50:46.896Z,23.10
2022-10-11T18:53:37.276Z,22.10
2022-10-11T18:56:28.637Z,21.60
2022-10-11T18:59:19.569Z,21.70
2022-10-11T19:02:11.043Z,21.10
2022-10-11T19:05:04.571Z,21.40
2022-10-11T19:07:54.577Z,21.30
2022-10-11T19:10:45.852Z,20.80
2022-10-11T19:13:36.397Z,22.80
2022-10-11T19:16:28.995Z,22.60
2022-10-11T19:19:19.857Z,22.20
2022-10-11T19:22:09.993Z,22.10
2022-10-11T19:24:59.982Z,22.30
2022-10-11T19:27:50.029Z,23.90
2022-10-11T19:30:40.082Z,23.20
2022-10-11T19:33:30.303Z,22.70
2022-10-11T19:36:21.571Z,21.80
2022-10-11T19:39:13.471Z,22.30
2022-10-11T19:42:04.462Z,22.70
2022-10-11T19:44:54.473Z,22.70
2022-10-11T19:47:44.491Z,22.30
2022-10-11T19:50:34.572Z,23.50
2022-10-11T19:53:24.983Z,22.50
2022-10-11T19:56:17.141Z,22.90
2022-10-11T19:59:07.446Z,22.70
2022-10-11T20:01:57.462Z,21.80
2022-10-11T20:04:52.451Z,22.10
2022-10-11T20:07:43.372Z,22.80
2022-10-11T20:10:33.838Z,21.50
2022-10-11T20:13:24.221Z,22.00
2022-10-11T20:16:15.517Z,22.10
2022-10-11T20:19:05.870Z,21.40
2022-10-11T20:21:56.188Z,21.80
2022-10-11T20:24:46.159Z,22.90
2022-10-11T20:27:36.460Z,21.60
2022-10-11T20:30:26.485Z,22.10
2022-10-11T20:33:16.830Z,22.30
2022-10-11T20:36:09.888Z,21.30
2022-10-11T20:39:00.662Z,21.80
2022-10-11T20:41:50.769Z,22.70
2022-10-11T20:44:44.056Z,21.60
2022-10-11T20:47:34.948Z,21.10
2022-10-11T20:50:26.322Z,21.50
2022-10-11T20:53:16.488Z,21.80
2022-10-11T20:56:08.337Z,21.80
2022-10-11T20:58:58.782Z,21.80
2022-10-11T21:01:48.949Z,20.80
2022-10-11T21:04:40.991Z,22.40
2022-10-11T21:07:31.212Z,21.60
2022-10-11T21:10:21.717Z,21.80
2022-10-11T21:13:11.807Z,20.10
2022-10-11T21:16:07.336Z,21.30
2022-10-11T21:18:58.980Z,19.80
2022-10-11T21:21:53.470Z,20.80
2022-10-11T21:24:43.940Z,21.00
2022-10-11T21:27:34.108Z,20.90
2022-10-11T21:30:30.866Z,20.30
2022-10-11T21:33:37.556Z,20.60
2022-10-11T21:36:36.835Z,20.20
2022-10-11T21:39:33.036Z,19.60
2022-10-11T21:42:28.571Z,19.90
2022-10-11T21:45:27.176Z,18.90
2022-10-11T21:48:37.773Z,19.00
2022-10-11T21:56:02.809Z,18.30
2022-10-11T21:58:55.792Z,19.10
2022-10-11T22:01:49.963Z,18.40
2022-10-11T22:05:03.522Z,17.70
2022-10-11T22:07:53.910Z,17.50
2022-10-11T22:10:53.682Z,18.70
2022-10-11T22:13:49.355Z,17.90
2022-10-11T22:16:48.330Z,17.50
2022-10-11T22:19:52.699Z,18.10
2022-10-11T22:23:01.584Z,18.20
2022-10-11T22:26:06.532Z,17.50
2022-10-11T22:29:13.095Z,16.60
2022-10-11T22:32:36.311Z,16.80
2022-10-11T22:35:37.177Z,16.70
2022-10-11T22:38:43.623Z,16.70
2022-10-11T22:41:47.203Z,15.20
2022-10-11T22:45:02.298Z,16.50
2022-10-11T22:48:03.953Z,16.30
2022-10-11T22:51:02.632Z,16.10
2022-10-11T22:54:02.149Z,15.80
2022-10-11T22:57:13.798Z,16.70
2022-10-11T23:00:28.501Z,16.60
2022-10-11T23:03:23.094Z,15.80
2022-10-11T23:06:28.937Z,16.20
2022-10-11T23:09:21.905Z,15.00
2022-10-11T23:12:12.729Z,15.00
2022-10-11T23:15:03.845Z,15.40
2022-10-11T23:17:57.629Z,14.60
2022-10-11T23:20:49.437Z,15.00
2022-10-11T23:23:42.314Z,15.20
2022-10-11T23:26:35.937Z,14.90
2022-10-11T23:29:39.668Z,14.60
2022-10-11T23:32:35.083Z,15.20
2022-10-11T23:35:30.371Z,14.80
2022-10-11T23:38:28.249Z,15.50
2022-10-11T23:41:25.466Z,15.80
2022-10-11T23:44:25.326Z,13.80
2022-10-11T23:47:26.759Z,13.70
2022-10-11T23:50:43.253Z,14.40
2022-10-11T23:53:42.190Z,13.60
2022-10-11T23:56:44.143Z,13.30
2022-10-11T23:59:40.329Z,13.90
